sensor_id;sensor_type;location;lat;lon;timestamp;P1;durP1;ratioP1;P2;durP2;ratioP2
26622;SDS011;14254;50.968;5.366;2023-04-30T00:01:39;25.83;;;11.18;;
26622;SDS011;14254;50.968;5.366;2023-04-30T00:04:05;27.27;;;11.60;;
26622;SDS011;14254;50.968;5.366;2023-04-30T00:06:30;25.05;;;11.98;;
26622;SDS011;14254;50.968;5.366;2023-04-30T00:08:56;32.28;;;12.40;;
26622;SDS011;14254;50.968;5.366;2023-04-30T00:11:22;26.27;;;12.50;;
26622;SDS011;14254;50.968;5.366;2023-04-30T00:13:49;28.42;;;12.35;;
26622;SDS011;14254;50.968;5.366;2023-04-30T00:16:15;26.48;;;12.38;;
26622;SDS011;14254;50.968;5.366;2023-04-30T00:18:41;37.60;;;12.85;;
26622;SDS011;14254;50.968;5.366;2023-04-30T00:21:07;38.75;;;13.90;;
26622;SDS011;14254;50.968;5.366;2023-04-30T00:23:33;34.45;;;14.32;;
26622;SDS011;14254;50.968;5.366;2023-04-30T00:25:59;43.58;;;14.57;;
26622;SDS011;14254;50.968;5.366;2023-04-30T00:28:24;30.27;;;13.02;;
26622;SDS011;14254;50.968;5.366;2023-04-30T00:30:50;33.95;;;14.52;;
26622;SDS011;14254;50.968;5.366;2023-04-30T00:33:16;34.97;;;13.77;;
26622;SDS011;14254;50.968;5.366;2023-04-30T00:35:41;47.28;;;13.93;;
26622;SDS011;14254;50.968;5.366;2023-04-30T00:38:07;40.10;;;15.32;;
26622;SDS011;14254;50.968;5.366;2023-04-30T00:40:33;39.25;;;15.77;;
26622;SDS011;14254;50.968;5.366;2023-04-30T00:42:59;40.67;;;15.15;;
26622;SDS011;14254;50.968;5.366;2023-04-30T00:45:25;34.15;;;14.73;;
26622;SDS011;14254;50.968;5.366;2023-04-30T00:47:51;37.15;;;15.02;;
26622;SDS011;14254;50.968;5.366;2023-04-30T00:50:17;42.13;;;16.65;;
26622;SDS011;14254;50.968;5.366;2023-04-30T00:52:42;38.45;;;15.27;;
26622;SDS011;14254;50.968;5.366;2023-04-30T00:55:11;44.15;;;15.25;;
26622;SDS011;14254;50.968;5.366;2023-04-30T00:57:37;47.15;;;15.48;;
26622;SDS011;14254;50.968;5.366;2023-04-30T01:00:05;42.92;;;15.20;;
26622;SDS011;14254;50.968;5.366;2023-04-30T01:02:35;35.03;;;14.48;;
26622;SDS011;14254;50.968;5.366;2023-04-30T01:05:01;39.17;;;15.75;;
26622;SDS011;14254;50.968;5.366;2023-04-30T01:07:28;35.25;;;14.18;;
26622;SDS011;14254;50.968;5.366;2023-04-30T01:09:54;31.63;;;13.82;;
26622;SDS011;14254;50.968;5.366;2023-04-30T01:18:16;21.55;;;13.07;;
26622;SDS011;14254;50.968;5.366;2023-04-30T01:20:48;23.48;;;13.20;;
26622;SDS011;14254;50.968;5.366;2023-04-30T01:23:27;25.90;;;12.38;;
26622;SDS011;14254;50.968;5.366;2023-04-30T01:29:07;22.65;;;12.52;;
26622;SDS011;14254;50.968;5.366;2023-04-30T01:31:36;26.75;;;13.18;;
26622;SDS011;14254;50.968;5.366;2023-04-30T01:34:01;26.58;;;12.95;;
26622;SDS011;14254;50.968;5.366;2023-04-30T01:42:15;21.85;;;14.13;;
26622;SDS011;14254;50.968;5.366;2023-04-30T01:47:47;28.17;;;16.70;;
26622;SDS011;14254;50.968;5.366;2023-04-30T01:53:04;22.65;;;14.55;;
26622;SDS011;14254;50.968;5.366;2023-04-30T01:58:02;21.65;;;14.15;;
26622;SDS011;14254;50.968;5.366;2023-04-30T02:00:31;28.13;;;14.25;;
26622;SDS011;14254;50.968;5.366;2023-04-30T02:02:58;24.20;;;15.07;;
26622;SDS011;14254;50.968;5.366;2023-04-30T02:05:24;24.02;;;14.45;;
26622;SDS011;14254;50.968;5.366;2023-04-30T02:07:50;26.52;;;14.07;;
26622;SDS011;14254;50.968;5.366;2023-04-30T02:10:18;24.80;;;14.63;;
26622;SDS011;14254;50.968;5.366;2023-04-30T02:12:45;23.65;;;15.25;;
26622;SDS011;14254;50.968;5.366;2023-04-30T02:15:11;26.33;;;15.05;;
26622;SDS011;14254;50.968;5.366;2023-04-30T02:17:37;24.58;;;15.65;;
26622;SDS011;14254;50.968;5.366;2023-04-30T02:20:03;28.80;;;16.42;;
26622;SDS011;14254;50.968;5.366;2023-04-30T02:22:29;27.60;;;16.23;;
26622;SDS011;14254;50.968;5.366;2023-04-30T02:24:55;26.45;;;16.83;;
26622;SDS011;14254;50.968;5.366;2023-04-30T02:27:21;25.25;;;15.32;;
26622;SDS011;14254;50.968;5.366;2023-04-30T02:29:48;29.38;;;15.65;;
26622;SDS011;14254;50.968;5.366;2023-04-30T02:32:14;27.75;;;17.63;;
26622;SDS011;14254;50.968;5.366;2023-04-30T02:34:40;32.83;;;16.27;;
26622;SDS011;14254;50.968;5.366;2023-04-30T02:37:06;28.23;;;17.15;;
26622;SDS011;14254;50.968;5.366;2023-04-30T02:39:32;31.55;;;17.30;;
26622;SDS011;14254;50.968;5.366;2023-04-30T02:41:58;30.55;;;16.63;;
26622;SDS011;14254;50.968;5.366;2023-04-30T02:44:24;26.02;;;16.05;;
26622;SDS011;14254;50.968;5.366;2023-04-30T02:46:50;26.85;;;17.45;;
26622;SDS011;14254;50.968;5.366;2023-04-30T02:49:15;29.08;;;18.10;;
26622;SDS011;14254;50.968;5.366;2023-04-30T02:51:41;30.58;;;19.20;;
26622;SDS011;14254;50.968;5.366;2023-04-30T02:54:07;35.30;;;19.92;;
26622;SDS011;14254;50.968;5.366;2023-04-30T02:56:33;34.35;;;20.60;;
26622;SDS011;14254;50.968;5.366;2023-04-30T02:58:59;33.08;;;20.10;;
26622;SDS011;14254;50.968;5.366;2023-04-30T03:01:25;34.75;;;20.60;;
26622;SDS011;14254;50.968;5.366;2023-04-30T03:03:51;35.08;;;21.10;;
26622;SDS011;14254;50.968;5.366;2023-04-30T03:06:17;35.30;;;20.77;;
26622;SDS011;14254;50.968;5.366;2023-04-30T03:08:43;38.40;;;20.73;;
26622;SDS011;14254;50.968;5.366;2023-04-30T03:11:08;35.75;;;20.58;;
26622;SDS011;14254;50.968;5.366;2023-04-30T03:13:34;35.88;;;20.90;;
26622;SDS011;14254;50.968;5.366;2023-04-30T03:16:00;35.25;;;20.95;;
26622;SDS011;14254;50.968;5.366;2023-04-30T03:18:30;34.15;;;20.65;;
26622;SDS011;14254;50.968;5.366;2023-04-30T03:20:56;42.72;;;21.88;;
26622;SDS011;14254;50.968;5.366;2023-04-30T03:23:22;36.70;;;20.02;;
26622;SDS011;14254;50.968;5.366;2023-04-30T03:25:50;42.25;;;22.20;;
26622;SDS011;14254;50.968;5.366;2023-04-30T03:28:16;35.83;;;21.88;;
26622;SDS011;14254;50.968;5.366;2023-04-30T03:30:42;43.35;;;23.35;;
26622;SDS011;14254;50.968;5.366;2023-04-30T03:33:08;41.50;;;22.67;;
26622;SDS011;14254;50.968;5.366;2023-04-30T03:35:33;38.70;;;22.90;;
26622;SDS011;14254;50.968;5.366;2023-04-30T03:37:59;39.47;;;23.35;;
26622;SDS011;14254;50.968;5.366;2023-04-30T03:40:25;40.25;;;22.00;;
26622;SDS011;14254;50.968;5.366;2023-04-30T03:42:51;39.17;;;23.10;;
26622;SDS011;14254;50.968;5.366;2023-04-30T03:45:17;40.08;;;23.58;;
26622;SDS011;14254;50.968;5.366;2023-04-30T03:47:43;39.08;;;23.30;;
26622;SDS011;14254;50.968;5.366;2023-04-30T03:50:09;38.97;;;22.83;;
26622;SDS011;14254;50.968;5.366;2023-04-30T03:52:35;46.90;;;23.55;;
26622;SDS011;14254;50.968;5.366;2023-04-30T03:55:01;40.78;;;22.92;;
26622;SDS011;14254;50.968;5.366;2023-04-30T03:57:27;46.05;;;24.52;;
26622;SDS011;14254;50.968;5.366;2023-04-30T03:59:53;43.92;;;26.63;;
26622;SDS011;14254;50.968;5.366;2023-04-30T04:02:19;44.63;;;24.85;;
26622;SDS011;14254;50.968;5.366;2023-04-30T04:04:45;43.50;;;25.02;;
26622;SDS011;14254;50.968;5.366;2023-04-30T04:07:11;42.50;;;25.52;;
26622;SDS011;14254;50.968;5.366;2023-04-30T04:09:37;47.50;;;26.65;;
26622;SDS011;14254;50.968;5.366;2023-04-30T04:12:03;45.35;;;25.75;;
26622;SDS011;14254;50.968;5.366;2023-04-30T04:14:29;47.72;;;26.40;;
26622;SDS011;14254;50.968;5.366;2023-04-30T04:16:55;44.05;;;24.23;;
26622;SDS011;14254;50.968;5.366;2023-04-30T04:19:29;40.38;;;23.27;;
26622;SDS011;14254;50.968;5.366;2023-04-30T04:21:55;42.92;;;24.60;;
26622;SDS011;14254;50.968;5.366;2023-04-30T04:24:23;39.70;;;23.95;;
26622;SDS011;14254;50.968;5.366;2023-04-30T04:26:49;49.13;;;26.65;;
26622;SDS011;14254;50.968;5.366;2023-04-30T04:29:16;43.03;;;26.35;;
26622;SDS011;14254;50.968;5.366;2023-04-30T04:31:42;51.60;;;26.80;;
26622;SDS011;14254;50.968;5.366;2023-04-30T04:34:07;49.88;;;27.45;;
26622;SDS011;14254;50.968;5.366;2023-04-30T04:36:33;45.67;;;26.20;;
26622;SDS011;14254;50.968;5.366;2023-04-30T04:38:59;49.30;;;28.52;;
26622;SDS011;14254;50.968;5.366;2023-04-30T04:41:32;47.95;;;27.33;;
26622;SDS011;14254;50.968;5.366;2023-04-30T04:43:59;47.13;;;28.63;;
26622;SDS011;14254;50.968;5.366;2023-04-30T04:46:29;55.72;;;30.40;;
26622;SDS011;14254;50.968;5.366;2023-04-30T04:48:56;45.70;;;25.60;;
26622;SDS011;14254;50.968;5.366;2023-04-30T04:51:22;49.75;;;28.33;;
26622;SDS011;14254;50.968;5.366;2023-04-30T04:53:48;51.50;;;28.77;;
26622;SDS011;14254;50.968;5.366;2023-04-30T04:56:14;55.17;;;29.67;;
26622;SDS011;14254;50.968;5.366;2023-04-30T04:58:40;51.13;;;26.92;;
26622;SDS011;14254;50.968;5.366;2023-04-30T05:01:06;48.45;;;28.05;;
26622;SDS011;14254;50.968;5.366;2023-04-30T05:03:33;51.28;;;29.45;;
26622;SDS011;14254;50.968;5.366;2023-04-30T05:06:01;45.00;;;29.52;;
26622;SDS011;14254;50.968;5.366;2023-04-30T05:08:27;45.45;;;29.38;;
26622;SDS011;14254;50.968;5.366;2023-04-30T05:10:53;49.80;;;28.42;;
26622;SDS011;14254;50.968;5.366;2023-04-30T05:13:19;51.50;;;30.88;;
26622;SDS011;14254;50.968;5.366;2023-04-30T05:15:44;48.47;;;29.15;;
26622;SDS011;14254;50.968;5.366;2023-04-30T05:18:11;51.28;;;29.10;;
26622;SDS011;14254;50.968;5.366;2023-04-30T05:20:36;42.80;;;28.02;;
26622;SDS011;14254;50.968;5.366;2023-04-30T05:23:02;45.92;;;28.65;;
26622;SDS011;14254;50.968;5.366;2023-04-30T05:25:28;45.08;;;29.20;;
26622;SDS011;14254;50.968;5.366;2023-04-30T05:27:53;43.58;;;29.15;;
26622;SDS011;14254;50.968;5.366;2023-04-30T05:30:20;43.28;;;27.38;;
26622;SDS011;14254;50.968;5.366;2023-04-30T05:32:46;52.63;;;29.30;;
26622;SDS011;14254;50.968;5.366;2023-04-30T05:35:15;44.80;;;27.88;;
26622;SDS011;14254;50.968;5.366;2023-04-30T05:37:41;50.92;;;30.27;;
26622;SDS011;14254;50.968;5.366;2023-04-30T05:40:07;46.50;;;29.40;;
26622;SDS011;14254;50.968;5.366;2023-04-30T05:42:33;47.90;;;28.60;;
26622;SDS011;14254;50.968;5.366;2023-04-30T05:45:00;40.38;;;26.50;;
26622;SDS011;14254;50.968;5.366;2023-04-30T05:47:26;41.10;;;27.70;;
26622;SDS011;14254;50.968;5.366;2023-04-30T05:49:52;47.03;;;29.40;;
26622;SDS011;14254;50.968;5.366;2023-04-30T05:52:18;45.22;;;27.98;;
26622;SDS011;14254;50.968;5.366;2023-04-30T05:54:44;44.28;;;28.65;;
26622;SDS011;14254;50.968;5.366;2023-04-30T05:57:10;43.53;;;26.75;;
26622;SDS011;14254;50.968;5.366;2023-04-30T05:59:35;43.33;;;25.92;;
26622;SDS011;14254;50.968;5.366;2023-04-30T06:02:01;36.55;;;24.40;;
26622;SDS011;14254;50.968;5.366;2023-04-30T06:04:27;42.63;;;25.92;;
26622;SDS011;14254;50.968;5.366;2023-04-30T06:06:52;37.75;;;25.77;;
26622;SDS011;14254;50.968;5.366;2023-04-30T06:09:18;40.30;;;23.75;;
26622;SDS011;14254;50.968;5.366;2023-04-30T06:11:44;40.13;;;24.17;;
26622;SDS011;14254;50.968;5.366;2023-04-30T06:14:14;39.33;;;24.38;;
26622;SDS011;14254;50.968;5.366;2023-04-30T06:16:40;36.35;;;23.08;;
26622;SDS011;14254;50.968;5.366;2023-04-30T06:19:06;36.42;;;22.98;;
26622;SDS011;14254;50.968;5.366;2023-04-30T06:21:32;37.67;;;23.33;;
26622;SDS011;14254;50.968;5.366;2023-04-30T06:23:57;33.20;;;18.90;;
26622;SDS011;14254;50.968;5.366;2023-04-30T06:26:23;36.67;;;22.67;;
26622;SDS011;14254;50.968;5.366;2023-04-30T06:28:49;34.00;;;21.30;;
26622;SDS011;14254;50.968;5.366;2023-04-30T06:31:14;34.35;;;22.13;;
26622;SDS011;14254;50.968;5.366;2023-04-30T06:33:40;34.58;;;22.75;;
26622;SDS011;14254;50.968;5.366;2023-04-30T06:36:06;32.38;;;22.30;;
26622;SDS011;14254;50.968;5.366;2023-04-30T06:38:31;35.65;;;22.25;;
26622;SDS011;14254;50.968;5.366;2023-04-30T06:40:57;34.30;;;21.50;;
26622;SDS011;14254;50.968;5.366;2023-04-30T06:43:22;36.95;;;22.75;;
26622;SDS011;14254;50.968;5.366;2023-04-30T06:45:48;32.70;;;23.15;;
26622;SDS011;14254;50.968;5.366;2023-04-30T06:48:14;36.60;;;22.92;;
26622;SDS011;14254;50.968;5.366;2023-04-30T06:50:40;31.35;;;21.88;;
26622;SDS011;14254;50.968;5.366;2023-04-30T06:53:12;31.45;;;21.52;;
26622;SDS011;14254;50.968;5.366;2023-04-30T06:55:38;38.22;;;22.63;;
26622;SDS011;14254;50.968;5.366;2023-04-30T06:58:05;34.83;;;22.42;;
26622;SDS011;14254;50.968;5.366;2023-04-30T07:00:31;36.53;;;21.90;;
26622;SDS011;14254;50.968;5.366;2023-04-30T07:02:56;29.73;;;20.00;;
26622;SDS011;14254;50.968;5.366;2023-04-30T07:05:26;37.13;;;22.92;;
26622;SDS011;14254;50.968;5.366;2023-04-30T07:07:52;32.78;;;20.15;;
26622;SDS011;14254;50.968;5.366;2023-04-30T07:10:18;36.95;;;22.20;;
26622;SDS011;14254;50.968;5.366;2023-04-30T07:12:44;36.47;;;23.27;;
26622;SDS011;14254;50.968;5.366;2023-04-30T07:15:09;33.92;;;22.27;;
26622;SDS011;14254;50.968;5.366;2023-04-30T07:17:35;32.17;;;20.85;;
26622;SDS011;14254;50.968;5.366;2023-04-30T07:20:02;31.67;;;21.60;;
26622;SDS011;14254;50.968;5.366;2023-04-30T07:22:29;34.75;;;22.98;;
26622;SDS011;14254;50.968;5.366;2023-04-30T07:24:55;35.38;;;23.38;;
26622;SDS011;14254;50.968;5.366;2023-04-30T07:27:21;31.30;;;21.10;;
26622;SDS011;14254;50.968;5.366;2023-04-30T07:29:47;34.70;;;22.73;;
26622;SDS011;14254;50.968;5.366;2023-04-30T07:32:13;31.88;;;23.05;;
26622;SDS011;14254;50.968;5.366;2023-04-30T07:34:40;32.33;;;22.02;;
26622;SDS011;14254;50.968;5.366;2023-04-30T07:37:06;31.20;;;21.92;;
26622;SDS011;14254;50.968;5.366;2023-04-30T07:39:33;38.72;;;22.60;;
26622;SDS011;14254;50.968;5.366;2023-04-30T07:42:00;35.17;;;21.20;;
26622;SDS011;14254;50.968;5.366;2023-04-30T07:44:27;33.13;;;21.80;;
26622;SDS011;14254;50.968;5.366;2023-04-30T07:46:52;31.58;;;21.92;;
26622;SDS011;14254;50.968;5.366;2023-04-30T07:49:18;31.92;;;20.23;;
26622;SDS011;14254;50.968;5.366;2023-04-30T07:51:44;35.63;;;21.45;;
26622;SDS011;14254;50.968;5.366;2023-04-30T07:54:10;31.50;;;22.15;;
26622;SDS011;14254;50.968;5.366;2023-04-30T07:56:36;31.10;;;20.90;;
26622;SDS011;14254;50.968;5.366;2023-04-30T07:59:02;32.55;;;22.15;;
26622;SDS011;14254;50.968;5.366;2023-04-30T08:01:28;30.15;;;22.45;;
26622;SDS011;14254;50.968;5.366;2023-04-30T08:03:53;33.80;;;21.63;;
26622;SDS011;14254;50.968;5.366;2023-04-30T08:06:19;30.05;;;21.35;;
26622;SDS011;14254;50.968;5.366;2023-04-30T08:08:45;29.08;;;20.25;;
26622;SDS011;14254;50.968;5.366;2023-04-30T08:11:11;30.98;;;21.30;;
26622;SDS011;14254;50.968;5.366;2023-04-30T08:13:37;29.10;;;20.10;;
26622;SDS011;14254;50.968;5.366;2023-04-30T08:16:02;29.35;;;19.67;;
26622;SDS011;14254;50.968;5.366;2023-04-30T08:18:28;27.80;;;18.85;;
26622;SDS011;14254;50.968;5.366;2023-04-30T08:20:56;25.88;;;19.30;;
26622;SDS011;14254;50.968;5.366;2023-04-30T08:23:22;26.65;;;18.67;;
26622;SDS011;14254;50.968;5.366;2023-04-30T08:25:47;27.73;;;19.63;;
26622;SDS011;14254;50.968;5.366;2023-04-30T08:28:13;30.23;;;19.60;;
26622;SDS011;14254;50.968;5.366;2023-04-30T08:30:38;29.33;;;18.55;;
26622;SDS011;14254;50.968;5.366;2023-04-30T08:33:04;27.48;;;19.08;;
26622;SDS011;14254;50.968;5.366;2023-04-30T08:35:30;26.40;;;18.83;;
26622;SDS011;14254;50.968;5.366;2023-04-30T08:37:56;28.48;;;18.48;;
26622;SDS011;14254;50.968;5.366;2023-04-30T08:40:22;22.55;;;16.95;;
26622;SDS011;14254;50.968;5.366;2023-04-30T08:42:53;23.73;;;16.30;;
26622;SDS011;14254;50.968;5.366;2023-04-30T08:45:32;22.67;;;14.95;;
26622;SDS011;14254;50.968;5.366;2023-04-30T08:47:59;19.45;;;14.45;;
26622;SDS011;14254;50.968;5.366;2023-04-30T08:50:25;20.75;;;15.10;;
26622;SDS011;14254;50.968;5.366;2023-04-30T08:52:52;21.15;;;12.68;;
26622;SDS011;14254;50.968;5.366;2023-04-30T08:55:19;20.83;;;12.60;;
26622;SDS011;14254;50.968;5.366;2023-04-30T08:57:44;15.60;;;11.77;;
26622;SDS011;14254;50.968;5.366;2023-04-30T09:00:10;20.80;;;13.45;;
26622;SDS011;14254;50.968;5.366;2023-04-30T09:02:40;18.83;;;12.23;;
26622;SDS011;14254;50.968;5.366;2023-04-30T09:05:10;19.88;;;12.65;;
26622;SDS011;14254;50.968;5.366;2023-04-30T09:07:38;16.70;;;11.52;;
26622;SDS011;14254;50.968;5.366;2023-04-30T09:10:28;16.13;;;12.18;;
26622;SDS011;14254;50.968;5.366;2023-04-30T09:12:59;17.10;;;11.63;;
26622;SDS011;14254;50.968;5.366;2023-04-30T09:15:26;17.42;;;11.88;;
26622;SDS011;14254;50.968;5.366;2023-04-30T09:20:52;15.98;;;9.43;;
26622;SDS011;14254;50.968;5.366;2023-04-30T09:23:26;15.13;;;10.32;;
26622;SDS011;14254;50.968;5.366;2023-04-30T09:25:52;11.88;;;8.27;;
26622;SDS011;14254;50.968;5.366;2023-04-30T09:28:18;13.30;;;10.18;;
26622;SDS011;14254;50.968;5.366;2023-04-30T09:30:48;10.98;;;7.63;;
26622;SDS011;14254;50.968;5.366;2023-04-30T09:33:14;12.45;;;9.32;;
26622;SDS011;14254;50.968;5.366;2023-04-30T09:35:40;11.77;;;7.50;;
26622;SDS011;14254;50.968;5.366;2023-04-30T09:38:06;11.02;;;7.68;;
26622;SDS011;14254;50.968;5.366;2023-04-30T09:40:35;10.90;;;7.85;;
26622;SDS011;14254;50.968;5.366;2023-04-30T09:43:05;11.90;;;8.25;;
26622;SDS011;14254;50.968;5.366;2023-04-30T09:45:38;9.85;;;7.30;;
26622;SDS011;14254;50.968;5.366;2023-04-30T09:48:06;10.60;;;7.80;;
26622;SDS011;14254;50.968;5.366;2023-04-30T09:50:37;15.13;;;8.35;;
26622;SDS011;14254;50.968;5.366;2023-04-30T09:53:09;15.27;;;7.97;;
26622;SDS011;14254;50.968;5.366;2023-04-30T09:55:38;14.05;;;7.47;;
26622;SDS011;14254;50.968;5.366;2023-04-30T09:58:07;10.20;;;6.90;;
26622;SDS011;14254;50.968;5.366;2023-04-30T10:00:34;13.57;;;7.35;;
26622;SDS011;14254;50.968;5.366;2023-04-30T10:03:05;7.20;;;5.50;;
26622;SDS011;14254;50.968;5.366;2023-04-30T10:05:36;9.27;;;6.75;;
26622;SDS011;14254;50.968;5.366;2023-04-30T10:08:06;10.93;;;7.80;;
26622;SDS011;14254;50.968;5.366;2023-04-30T10:10:37;11.95;;;6.88;;
26622;SDS011;14254;50.968;5.366;2023-04-30T10:13:04;9.73;;;7.03;;
26622;SDS011;14254;50.968;5.366;2023-04-30T10:15:35;10.18;;;5.80;;
26622;SDS011;14254;50.968;5.366;2023-04-30T10:18:05;8.77;;;5.95;;
26622;SDS011;14254;50.968;5.366;2023-04-30T10:20:35;10.63;;;5.45;;
26622;SDS011;14254;50.968;5.366;2023-04-30T10:23:02;6.93;;;4.80;;
26622;SDS011;14254;50.968;5.366;2023-04-30T10:25:29;7.88;;;6.18;;
26622;SDS011;14254;50.968;5.366;2023-04-30T10:27:56;7.03;;;5.68;;
26622;SDS011;14254;50.968;5.366;2023-04-30T10:30:22;7.43;;;5.68;;
26622;SDS011;14254;50.968;5.366;2023-04-30T10:35:22;6.38;;;5.15;;
26622;SDS011;14254;50.968;5.366;2023-04-30T10:37:56;9.43;;;4.57;;
26622;SDS011;14254;50.968;5.366;2023-04-30T10:40:35;5.80;;;5.00;;
26622;SDS011;14254;50.968;5.366;2023-04-30T10:43:01;8.63;;;6.10;;
26622;SDS011;14254;50.968;5.366;2023-04-30T10:45:37;9.15;;;4.97;;
26622;SDS011;14254;50.968;5.366;2023-04-30T10:48:05;7.78;;;5.15;;
26622;SDS011;14254;50.968;5.366;2023-04-30T10:50:31;6.65;;;4.90;;
26622;SDS011;14254;50.968;5.366;2023-04-30T10:55:30;7.28;;;5.78;;
26622;SDS011;14254;50.968;5.366;2023-04-30T10:57:59;6.13;;;4.78;;
26622;SDS011;14254;50.968;5.366;2023-04-30T11:00:25;7.53;;;5.47;;
26622;SDS011;14254;50.968;5.366;2023-04-30T11:02:57;7.85;;;5.95;;
26622;SDS011;14254;50.968;5.366;2023-04-30T11:05:35;6.72;;;4.90;;
26622;SDS011;14254;50.968;5.366;2023-04-30T11:08:02;7.47;;;5.00;;
26622;SDS011;14254;50.968;5.366;2023-04-30T11:10:31;7.72;;;4.95;;
26622;SDS011;14254;50.968;5.366;2023-04-30T11:12:57;6.82;;;4.93;;
26622;SDS011;14254;50.968;5.366;2023-04-30T11:15:32;7.65;;;4.80;;
26622;SDS011;14254;50.968;5.366;2023-04-30T11:18:00;8.13;;;3.55;;
26622;SDS011;14254;50.968;5.366;2023-04-30T11:20:26;7.97;;;4.13;;
26622;SDS011;14254;50.968;5.366;2023-04-30T11:23:08;5.10;;;4.43;;
26622;SDS011;14254;50.968;5.366;2023-04-30T11:25:42;5.22;;;3.72;;
26622;SDS011;14254;50.968;5.366;2023-04-30T11:28:16;4.55;;;3.53;;
26622;SDS011;14254;50.968;5.366;2023-04-30T11:30:56;3.35;;;2.85;;
26622;SDS011;14254;50.968;5.366;2023-04-30T11:33:24;4.15;;;2.70;;
26622;SDS011;14254;50.968;5.366;2023-04-30T11:35:51;3.38;;;2.88;;
26622;SDS011;14254;50.968;5.366;2023-04-30T11:38:20;4.88;;;3.70;;
26622;SDS011;14254;50.968;5.366;2023-04-30T11:40:53;3.60;;;2.70;;
26622;SDS011;14254;50.968;5.366;2023-04-30T11:46:24;5.93;;;2.85;;
26622;SDS011;14254;50.968;5.366;2023-04-30T11:48:43;4.13;;;2.70;;
26622;SDS011;14254;50.968;5.366;2023-04-30T11:53:42;4.80;;;3.63;;
26622;SDS011;14254;50.968;5.366;2023-04-30T11:56:11;5.53;;;3.75;;
26622;SDS011;14254;50.968;5.366;2023-04-30T11:58:37;4.07;;;3.67;;
26622;SDS011;14254;50.968;5.366;2023-04-30T12:01:04;5.10;;;3.25;;
26622;SDS011;14254;50.968;5.366;2023-04-30T12:03:32;3.28;;;2.97;;
26622;SDS011;14254;50.968;5.366;2023-04-30T12:06:04;4.13;;;3.38;;
26622;SDS011;14254;50.968;5.366;2023-04-30T12:08:29;5.20;;;3.20;;
26622;SDS011;14254;50.968;5.366;2023-04-30T12:10:55;3.78;;;3.15;;
26622;SDS011;14254;50.968;5.366;2023-04-30T12:13:21;2.60;;;2.25;;
26622;SDS011;14254;50.968;5.366;2023-04-30T12:15:56;3.97;;;2.40;;
26622;SDS011;14254;50.968;5.366;2023-04-30T12:18:23;4.28;;;3.42;;
26622;SDS011;14254;50.968;5.366;2023-04-30T12:20:50;3.55;;;2.90;;
26622;SDS011;14254;50.968;5.366;2023-04-30T12:23:16;4.10;;;2.47;;
26622;SDS011;14254;50.968;5.366;2023-04-30T12:25:42;2.42;;;2.22;;
26622;SDS011;14254;50.968;5.366;2023-04-30T12:28:08;2.47;;;2.15;;
26622;SDS011;14254;50.968;5.366;2023-04-30T12:30:35;1.85;;;1.70;;
26622;SDS011;14254;50.968;5.366;2023-04-30T12:33:01;2.70;;;2.50;;
26622;SDS011;14254;50.968;5.366;2023-04-30T12:35:28;2.42;;;1.95;;
26622;SDS011;14254;50.968;5.366;2023-04-30T12:38:05;4.03;;;1.98;;
26622;SDS011;14254;50.968;5.366;2023-04-30T12:40:33;2.75;;;1.63;;
26622;SDS011;14254;50.968;5.366;2023-04-30T12:48:15;2.95;;;2.58;;
26622;SDS011;14254;50.968;5.366;2023-04-30T12:50:45;3.88;;;2.30;;
26622;SDS011;14254;50.968;5.366;2023-04-30T12:53:12;2.05;;;1.90;;
26622;SDS011;14254;50.968;5.366;2023-04-30T12:55:38;2.63;;;1.77;;
26622;SDS011;14254;50.968;5.366;2023-04-30T13:03:10;1.52;;;1.33;;
26622;SDS011;14254;50.968;5.366;2023-04-30T13:05:36;0.90;;;0.80;;
26622;SDS011;14254;50.968;5.366;2023-04-30T13:08:02;2.00;;;1.10;;
26622;SDS011;14254;50.968;5.366;2023-04-30T13:10:31;4.22;;;1.52;;
26622;SDS011;14254;50.968;5.366;2023-04-30T13:12:57;1.35;;;1.25;;
26622;SDS011;14254;50.968;5.366;2023-04-30T13:15:23;1.77;;;1.30;;
26622;SDS011;14254;50.968;5.366;2023-04-30T13:17:49;1.73;;;1.45;;
26622;SDS011;14254;50.968;5.366;2023-04-30T13:20:15;1.73;;;1.63;;
26622;SDS011;14254;50.968;5.366;2023-04-30T13:22:41;4.70;;;1.50;;
26622;SDS011;14254;50.968;5.366;2023-04-30T13:25:07;1.33;;;1.15;;
26622;SDS011;14254;50.968;5.366;2023-04-30T13:27:33;2.45;;;1.80;;
26622;SDS011;14254;50.968;5.366;2023-04-30T13:29:59;1.35;;;1.20;;
26622;SDS011;14254;50.968;5.366;2023-04-30T13:32:26;1.70;;;1.30;;
26622;SDS011;14254;50.968;5.366;2023-04-30T13:34:52;1.60;;;1.48;;
26622;SDS011;14254;50.968;5.366;2023-04-30T13:37:19;2.42;;;1.92;;
26622;SDS011;14254;50.968;5.366;2023-04-30T13:39:45;3.28;;;1.58;;
26622;SDS011;14254;50.968;5.366;2023-04-30T13:42:12;2.67;;;1.88;;
26622;SDS011;14254;50.968;5.366;2023-04-30T13:44:38;1.70;;;1.60;;
26622;SDS011;14254;50.968;5.366;2023-04-30T13:47:04;2.70;;;2.17;;
26622;SDS011;14254;50.968;5.366;2023-04-30T13:49:31;2.85;;;2.45;;
26622;SDS011;14254;50.968;5.366;2023-04-30T13:51:59;2.42;;;1.90;;
26622;SDS011;14254;50.968;5.366;2023-04-30T13:54:25;2.45;;;1.67;;
26622;SDS011;14254;50.968;5.366;2023-04-30T13:56:51;2.22;;;2.13;;
26622;SDS011;14254;50.968;5.366;2023-04-30T13:59:17;2.50;;;2.08;;
26622;SDS011;14254;50.968;5.366;2023-04-30T14:01:43;8.15;;;7.28;;
26622;SDS011;14254;50.968;5.366;2023-04-30T14:04:08;6.72;;;4.93;;
26622;SDS011;14254;50.968;5.366;2023-04-30T14:06:34;2.80;;;2.22;;
26622;SDS011;14254;50.968;5.366;2023-04-30T14:09:02;2.88;;;1.80;;
26622;SDS011;14254;50.968;5.366;2023-04-30T14:11:28;2.38;;;2.15;;
26622;SDS011;14254;50.968;5.366;2023-04-30T14:13:54;2.97;;;2.03;;
26622;SDS011;14254;50.968;5.366;2023-04-30T14:16:19;3.75;;;3.40;;
26622;SDS011;14254;50.968;5.366;2023-04-30T14:18:46;2.88;;;2.50;;
26622;SDS011;14254;50.968;5.366;2023-04-30T14:21:12;1.90;;;1.55;;
26622;SDS011;14254;50.968;5.366;2023-04-30T14:23:37;4.13;;;2.17;;
26622;SDS011;14254;50.968;5.366;2023-04-30T14:26:03;2.05;;;1.65;;
26622;SDS011;14254;50.968;5.366;2023-04-30T14:28:30;2.97;;;2.03;;
26622;SDS011;14254;50.968;5.366;2023-04-30T14:30:56;2.42;;;2.13;;
26622;SDS011;14254;50.968;5.366;2023-04-30T14:33:21;2.63;;;2.40;;
26622;SDS011;14254;50.968;5.366;2023-04-30T14:35:47;2.78;;;1.83;;
26622;SDS011;14254;50.968;5.366;2023-04-30T14:38:13;1.85;;;1.75;;
26622;SDS011;14254;50.968;5.366;2023-04-30T14:40:39;3.50;;;2.42;;
26622;SDS011;14254;50.968;5.366;2023-04-30T14:43:06;3.90;;;3.00;;
26622;SDS011;14254;50.968;5.366;2023-04-30T14:45:31;2.72;;;2.53;;
26622;SDS011;14254;50.968;5.366;2023-04-30T14:47:57;2.92;;;2.20;;
26622;SDS011;14254;50.968;5.366;2023-04-30T14:50:23;2.47;;;1.92;;
26622;SDS011;14254;50.968;5.366;2023-04-30T14:52:49;2.20;;;1.98;;
26622;SDS011;14254;50.968;5.366;2023-04-30T14:55:15;3.67;;;2.28;;
26622;SDS011;14254;50.968;5.366;2023-04-30T14:57:41;3.05;;;2.08;;
26622;SDS011;14254;50.968;5.366;2023-04-30T15:00:07;2.15;;;1.98;;
26622;SDS011;14254;50.968;5.366;2023-04-30T15:02:33;4.00;;;2.35;;
26622;SDS011;14254;50.968;5.366;2023-04-30T15:05:00;4.70;;;2.15;;
26622;SDS011;14254;50.968;5.366;2023-04-30T15:07:28;1.90;;;1.80;;
26622;SDS011;14254;50.968;5.366;2023-04-30T15:09:53;2.30;;;2.00;;
26622;SDS011;14254;50.968;5.366;2023-04-30T15:12:19;2.33;;;1.83;;
26622;SDS011;14254;50.968;5.366;2023-04-30T15:14:46;3.50;;;2.03;;
26622;SDS011;14254;50.968;5.366;2023-04-30T15:17:12;3.35;;;2.00;;